sensor_id;sensor_type;location;lat;lon;timestamp;P1;durP1;ratioP1;P2;durP2;ratioP2
1837;SDS011;918;50.796;6.772;2023-10-08T00:02:03;4.83;;;3.50;;
1837;SDS011;918;50.796;6.772;2023-10-08T00:04:28;3.87;;;3.30;;
1837;SDS011;918;50.796;6.772;2023-10-08T00:06:53;5.30;;;4.17;;
1837;SDS011;918;50.796;6.772;2023-10-08T00:09:19;5.10;;;4.03;;
1837;SDS011;918;50.796;6.772;2023-10-08T00:11:45;5.57;;;3.87;;
1837;SDS011;918;50.796;6.772;2023-10-08T00:14:16;12.20;;;4.20;;
1837;SDS011;918;50.796;6.772;2023-10-08T00:16:46;5.50;;;3.80;;
1837;SDS011;918;50.796;6.772;2023-10-08T00:19:14;4.50;;;3.50;;
1837;SDS011;918;50.796;6.772;2023-10-08T00:21:40;6.40;;;3.37;;
1837;SDS011;918;50.796;6.772;2023-10-08T00:24:09;5.87;;;4.17;;
1837;SDS011;918;50.796;6.772;2023-10-08T00:26:34;5.37;;;4.00;;
1837;SDS011;918;50.796;6.772;2023-10-08T00:29:05;4.40;;;3.33;;
1837;SDS011;918;50.796;6.772;2023-10-08T00:31:41;4.60;;;3.90;;
1837;SDS011;918;50.796;6.772;2023-10-08T00:34:13;4.10;;;3.70;;
1837;SDS011;918;50.796;6.772;2023-10-08T00:36:39;6.00;;;3.80;;
1837;SDS011;918;50.796;6.772;2023-10-08T00:39:11;3.87;;;3.43;;
1837;SDS011;918;50.796;6.772;2023-10-08T00:41:46;4.93;;;4.00;;
1837;SDS011;918;50.796;6.772;2023-10-08T00:44:12;6.53;;;3.77;;
1837;SDS011;918;50.796;6.772;2023-10-08T00:46:47;4.80;;;4.30;;
1837;SDS011;918;50.796;6.772;2023-10-08T00:49:21;7.20;;;4.00;;
1837;SDS011;918;50.796;6.772;2023-10-08T00:51:51;4.07;;;3.53;;
1837;SDS011;918;50.796;6.772;2023-10-08T00:54:32;6.27;;;4.43;;
1837;SDS011;918;50.796;6.772;2023-10-08T00:57:14;5.67;;;4.10;;
1837;SDS011;918;50.796;6.772;2023-10-08T00:59:45;5.67;;;3.87;;
1837;SDS011;918;50.796;6.772;2023-10-08T01:02:10;4.03;;;3.63;;
1837;SDS011;918;50.796;6.772;2023-10-08T01:04:40;4.40;;;4.00;;
1837;SDS011;918;50.796;6.772;2023-10-08T01:07:08;7.57;;;4.00;;
1837;SDS011;918;50.796;6.772;2023-10-08T01:09:43;3.40;;;3.10;;
1837;SDS011;918;50.796;6.772;2023-10-08T01:12:18;4.10;;;3.30;;
1837;SDS011;918;50.796;6.772;2023-10-08T01:14:59;4.47;;;3.60;;
1837;SDS011;918;50.796;6.772;2023-10-08T01:17:41;4.10;;;3.53;;
1837;SDS011;918;50.796;6.772;2023-10-08T01:20:15;5.60;;;4.37;;
1837;SDS011;918;50.796;6.772;2023-10-08T01:23:08;5.63;;;3.70;;
1837;SDS011;918;50.796;6.772;2023-10-08T01:25:38;7.30;;;4.30;;
1837;SDS011;918;50.796;6.772;2023-10-08T01:28:08;3.90;;;3.53;;
1837;SDS011;918;50.796;6.772;2023-10-08T01:30:39;4.97;;;3.60;;
1837;SDS011;918;50.796;6.772;2023-10-08T01:33:06;4.70;;;3.77;;
1837;SDS011;918;50.796;6.772;2023-10-08T01:35:39;6.10;;;3.40;;
1837;SDS011;918;50.796;6.772;2023-10-08T01:38:06;4.37;;;3.20;;
1837;SDS011;918;50.796;6.772;2023-10-08T01:40:33;5.50;;;4.77;;
1837;SDS011;918;50.796;6.772;2023-10-08T01:42:58;4.80;;;3.70;;
1837;SDS011;918;50.796;6.772;2023-10-08T01:45:30;5.57;;;3.90;;
1837;SDS011;918;50.796;6.772;2023-10-08T01:47:56;6.97;;;4.20;;
1837;SDS011;918;50.796;6.772;2023-10-08T01:50:22;5.00;;;3.70;;
1837;SDS011;918;50.796;6.772;2023-10-08T01:52:50;5.17;;;3.90;;
1837;SDS011;918;50.796;6.772;2023-10-08T01:55:16;5.43;;;4.87;;
1837;SDS011;918;50.796;6.772;2023-10-08T01:57:45;4.50;;;3.93;;
1837;SDS011;918;50.796;6.772;2023-10-08T02:00:11;4.33;;;3.33;;
1837;SDS011;918;50.796;6.772;2023-10-08T02:02:36;5.00;;;4.00;;
1837;SDS011;918;50.796;6.772;2023-10-08T02:05:02;7.63;;;4.30;;
1837;SDS011;918;50.796;6.772;2023-10-08T02:07:29;5.70;;;3.80;;
1837;SDS011;918;50.796;6.772;2023-10-08T02:09:55;4.90;;;3.97;;
1837;SDS011;918;50.796;6.772;2023-10-08T02:12:22;4.70;;;3.73;;
1837;SDS011;918;50.796;6.772;2023-10-08T02:14:48;4.70;;;4.30;;
1837;SDS011;918;50.796;6.772;2023-10-08T02:17:14;4.97;;;4.00;;
1837;SDS011;918;50.796;6.772;2023-10-08T02:19:39;4.60;;;3.70;;
1837;SDS011;918;50.796;6.772;2023-10-08T02:22:06;5.30;;;4.23;;
1837;SDS011;918;50.796;6.772;2023-10-08T02:24:34;5.23;;;3.57;;
1837;SDS011;918;50.796;6.772;2023-10-08T02:26:59;4.80;;;3.83;;
1837;SDS011;918;50.796;6.772;2023-10-08T02:29:25;6.10;;;4.47;;
1837;SDS011;918;50.796;6.772;2023-10-08T02:31:53;7.93;;;5.50;;
1837;SDS011;918;50.796;6.772;2023-10-08T02:34:19;4.70;;;3.50;;
1837;SDS011;918;50.796;6.772;2023-10-08T02:36:44;4.17;;;3.53;;
1837;SDS011;918;50.796;6.772;2023-10-08T02:39:11;5.90;;;4.33;;
1837;SDS011;918;50.796;6.772;2023-10-08T02:41:47;4.43;;;4.00;;
1837;SDS011;918;50.796;6.772;2023-10-08T02:44:13;4.47;;;3.90;;
1837;SDS011;918;50.796;6.772;2023-10-08T02:46:42;4.67;;;3.53;;
1837;SDS011;918;50.796;6.772;2023-10-08T02:49:12;4.47;;;4.07;;
1837;SDS011;918;50.796;6.772;2023-10-08T02:51:41;4.57;;;3.63;;
1837;SDS011;918;50.796;6.772;2023-10-08T02:54:09;6.73;;;3.90;;
1837;SDS011;918;50.796;6.772;2023-10-08T02:56:42;4.50;;;4.10;;
1837;SDS011;918;50.796;6.772;2023-10-08T02:59:09;5.73;;;4.57;;
1837;SDS011;918;50.796;6.772;2023-10-08T03:01:37;4.53;;;3.37;;
1837;SDS011;918;50.796;6.772;2023-10-08T03:04:05;6.47;;;3.93;;
1837;SDS011;918;50.796;6.772;2023-10-08T03:06:39;6.17;;;4.80;;
1837;SDS011;918;50.796;6.772;2023-10-08T03:09:06;6.27;;;4.43;;
1837;SDS011;918;50.796;6.772;2023-10-08T03:11:32;6.20;;;5.07;;
1837;SDS011;918;50.796;6.772;2023-10-08T03:14:00;6.60;;;4.03;;
1837;SDS011;918;50.796;6.772;2023-10-08T03:16:25;6.43;;;3.93;;
1837;SDS011;918;50.796;6.772;2023-10-08T03:18:58;8.90;;;4.60;;
1837;SDS011;918;50.796;6.772;2023-10-08T03:21:24;6.03;;;4.40;;
1837;SDS011;918;50.796;6.772;2023-10-08T03:23:58;4.53;;;3.80;;
1837;SDS011;918;50.796;6.772;2023-10-08T03:26:23;5.77;;;3.90;;
1837;SDS011;918;50.796;6.772;2023-10-08T03:29:02;6.03;;;4.30;;
1837;SDS011;918;50.796;6.772;2023-10-08T03:31:41;4.97;;;4.47;;
1837;SDS011;918;50.796;6.772;2023-10-08T03:34:18;5.00;;;4.13;;
1837;SDS011;918;50.796;6.772;2023-10-08T03:36:44;4.73;;;4.00;;
1837;SDS011;918;50.796;6.772;2023-10-08T03:39:10;5.90;;;4.20;;
1837;SDS011;918;50.796;6.772;2023-10-08T03:41:38;7.27;;;4.27;;
1837;SDS011;918;50.796;6.772;2023-10-08T03:44:05;6.80;;;4.70;;
1837;SDS011;918;50.796;6.772;2023-10-08T03:46:31;4.10;;;3.70;;
1837;SDS011;918;50.796;6.772;2023-10-08T03:49:04;4.90;;;4.23;;
1837;SDS011;918;50.796;6.772;2023-10-08T03:51:31;5.23;;;4.00;;
1837;SDS011;918;50.796;6.772;2023-10-08T03:54:04;6.23;;;4.67;;
1837;SDS011;918;50.796;6.772;2023-10-08T03:56:55;5.13;;;4.13;;
1837;SDS011;918;50.796;6.772;2023-10-08T03:59:21;5.73;;;4.20;;
1837;SDS011;918;50.796;6.772;2023-10-08T04:01:56;7.57;;;4.30;;
1837;SDS011;918;50.796;6.772;2023-10-08T04:04:25;5.00;;;4.10;;
1837;SDS011;918;50.796;6.772;2023-10-08T04:07:14;7.03;;;3.80;;
1837;SDS011;918;50.796;6.772;2023-10-08T04:10:10;6.30;;;4.60;;
1837;SDS011;918;50.796;6.772;2023-10-08T04:12:38;5.57;;;3.90;;
1837;SDS011;918;50.796;6.772;2023-10-08T04:15:13;5.13;;;4.63;;
1837;SDS011;918;50.796;6.772;2023-10-08T04:17:41;6.83;;;4.23;;
1837;SDS011;918;50.796;6.772;2023-10-08T04:20:10;6.57;;;4.77;;
1837;SDS011;918;50.796;6.772;2023-10-08T04:22:54;5.37;;;3.97;;
1837;SDS011;918;50.796;6.772;2023-10-08T04:25:19;5.40;;;4.63;;
1837;SDS011;918;50.796;6.772;2023-10-08T04:27:45;4.80;;;4.40;;
1837;SDS011;918;50.796;6.772;2023-10-08T04:30:14;4.63;;;4.23;;
1837;SDS011;918;50.796;6.772;2023-10-08T04:32:40;7.10;;;5.33;;
1837;SDS011;918;50.796;6.772;2023-10-08T04:35:06;4.90;;;4.23;;
1837;SDS011;918;50.796;6.772;2023-10-08T04:37:33;5.23;;;4.73;;
1837;SDS011;918;50.796;6.772;2023-10-08T04:39:58;5.47;;;4.70;;
1837;SDS011;918;50.796;6.772;2023-10-08T04:42:24;5.23;;;3.93;;
1837;SDS011;918;50.796;6.772;2023-10-08T04:44:53;4.97;;;4.20;;
1837;SDS011;918;50.796;6.772;2023-10-08T04:47:19;6.53;;;4.00;;
1837;SDS011;918;50.796;6.772;2023-10-08T04:49:57;5.97;;;4.63;;
1837;SDS011;918;50.796;6.772;2023-10-08T04:52:22;5.10;;;4.60;;
1837;SDS011;918;50.796;6.772;2023-10-08T04:54:50;5.43;;;4.50;;
1837;SDS011;918;50.796;6.772;2023-10-08T04:57:19;5.23;;;4.57;;
1837;SDS011;918;50.796;6.772;2023-10-08T04:59:50;4.77;;;4.23;;
1837;SDS011;918;50.796;6.772;2023-10-08T05:02:16;5.07;;;4.57;;
1837;SDS011;918;50.796;6.772;2023-10-08T05:04:48;6.23;;;4.80;;
1837;SDS011;918;50.796;6.772;2023-10-08T05:07:19;5.43;;;4.70;;
1837;SDS011;918;50.796;6.772;2023-10-08T05:10:04;6.00;;;4.70;;
1837;SDS011;918;50.796;6.772;2023-10-08T05:12:32;7.13;;;4.70;;
1837;SDS011;918;50.796;6.772;2023-10-08T05:14:58;5.50;;;5.00;;
1837;SDS011;918;50.796;6.772;2023-10-08T05:17:42;6.97;;;4.80;;
1837;SDS011;918;50.796;6.772;2023-10-08T05:20:18;5.87;;;4.60;;
1837;SDS011;918;50.796;6.772;2023-10-08T05:22:55;7.27;;;4.60;;
1837;SDS011;918;50.796;6.772;2023-10-08T05:25:30;6.20;;;5.60;;
1837;SDS011;918;50.796;6.772;2023-10-08T05:28:05;6.60;;;5.03;;
1837;SDS011;918;50.796;6.772;2023-10-08T05:30:49;6.67;;;4.57;;
1837;SDS011;918;50.796;6.772;2023-10-08T05:33:36;6.30;;;5.63;;
1837;SDS011;918;50.796;6.772;2023-10-08T05:36:21;7.80;;;5.10;;
1837;SDS011;918;50.796;6.772;2023-10-08T05:39:16;7.40;;;5.50;;
1837;SDS011;918;50.796;6.772;2023-10-08T05:41:57;5.23;;;4.43;;
1837;SDS011;918;50.796;6.772;2023-10-08T05:44:51;5.97;;;4.67;;
1837;SDS011;918;50.796;6.772;2023-10-08T05:47:31;6.47;;;4.80;;
1837;SDS011;918;50.796;6.772;2023-10-08T05:49:57;8.33;;;5.10;;
1837;SDS011;918;50.796;6.772;2023-10-08T05:52:41;5.87;;;5.00;;
1837;SDS011;918;50.796;6.772;2023-10-08T05:55:18;7.17;;;4.90;;
1837;SDS011;918;50.796;6.772;2023-10-08T05:57:50;6.40;;;5.03;;
1837;SDS011;918;50.796;6.772;2023-10-08T06:00:38;6.77;;;5.23;;
1837;SDS011;918;50.796;6.772;2023-10-08T06:03:12;5.70;;;4.90;;
1837;SDS011;918;50.796;6.772;2023-10-08T06:05:56;7.97;;;5.00;;
1837;SDS011;918;50.796;6.772;2023-10-08T06:08:42;5.00;;;3.87;;
1837;SDS011;918;50.796;6.772;2023-10-08T06:11:26;6.53;;;4.23;;
1837;SDS011;918;50.796;6.772;2023-10-08T06:14:10;5.07;;;3.80;;
1837;SDS011;918;50.796;6.772;2023-10-08T06:16:39;5.53;;;4.87;;
1837;SDS011;918;50.796;6.772;2023-10-08T06:19:09;7.30;;;5.37;;
1837;SDS011;918;50.796;6.772;2023-10-08T06:21:36;6.60;;;5.50;;
1837;SDS011;918;50.796;6.772;2023-10-08T06:24:03;5.43;;;4.93;;
1837;SDS011;918;50.796;6.772;2023-10-08T06:26:34;7.40;;;4.87;;
1837;SDS011;918;50.796;6.772;2023-10-08T06:29:07;5.60;;;5.00;;
1837;SDS011;918;50.796;6.772;2023-10-08T06:31:44;5.67;;;4.97;;
1837;SDS011;918;50.796;6.772;2023-10-08T06:34:15;7.33;;;5.67;;
1837;SDS011;918;50.796;6.772;2023-10-08T06:36:41;6.53;;;4.50;;
1837;SDS011;918;50.796;6.772;2023-10-08T06:39:06;6.53;;;5.00;;
1837;SDS011;918;50.796;6.772;2023-10-08T06:41:36;7.20;;;5.03;;
1837;SDS011;918;50.796;6.772;2023-10-08T06:44:02;5.53;;;4.87;;
1837;SDS011;918;50.796;6.772;2023-10-08T06:46:27;9.80;;;4.80;;
1837;SDS011;918;50.796;6.772;2023-10-08T06:48:54;5.73;;;5.17;;
1837;SDS011;918;50.796;6.772;2023-10-08T06:51:19;7.07;;;4.83;;
1837;SDS011;918;50.796;6.772;2023-10-08T06:53:45;7.07;;;5.07;;
1837;SDS011;918;50.796;6.772;2023-10-08T06:56:12;8.13;;;5.47;;
1837;SDS011;918;50.796;6.772;2023-10-08T06:58:38;7.50;;;5.70;;
1837;SDS011;918;50.796;6.772;2023-10-08T07:01:04;6.30;;;5.20;;
1837;SDS011;918;50.796;6.772;2023-10-08T07:03:30;6.73;;;5.23;;
1837;SDS011;918;50.796;6.772;2023-10-08T07:05:56;8.77;;;5.80;;
1837;SDS011;918;50.796;6.772;2023-10-08T07:08:26;7.73;;;5.70;;
1837;SDS011;918;50.796;6.772;2023-10-08T07:10:56;6.33;;;5.30;;
1837;SDS011;918;50.796;6.772;2023-10-08T07:13:23;7.73;;;5.50;;
1837;SDS011;918;50.796;6.772;2023-10-08T07:15:49;5.67;;;5.17;;
1837;SDS011;918;50.796;6.772;2023-10-08T07:18:15;5.50;;;4.67;;
1837;SDS011;918;50.796;6.772;2023-10-08T07:20:47;5.50;;;4.90;;
1837;SDS011;918;50.796;6.772;2023-10-08T07:23:18;6.33;;;4.83;;
1837;SDS011;918;50.796;6.772;2023-10-08T07:25:45;6.30;;;5.60;;
1837;SDS011;918;50.796;6.772;2023-10-08T07:28:17;9.07;;;5.63;;
1837;SDS011;918;50.796;6.772;2023-10-08T07:30:44;7.80;;;7.00;;
1837;SDS011;918;50.796;6.772;2023-10-08T07:33:10;6.27;;;4.13;;
1837;SDS011;918;50.796;6.772;2023-10-08T07:35:43;7.57;;;5.37;;
1837;SDS011;918;50.796;6.772;2023-10-08T07:38:35;7.63;;;4.90;;
1837;SDS011;918;50.796;6.772;2023-10-08T07:41:00;5.40;;;4.37;;
1837;SDS011;918;50.796;6.772;2023-10-08T07:43:26;6.53;;;4.57;;
1837;SDS011;918;50.796;6.772;2023-10-08T07:45:51;6.17;;;5.20;;
1837;SDS011;918;50.796;6.772;2023-10-08T07:48:18;5.30;;;4.30;;
1837;SDS011;918;50.796;6.772;2023-10-08T07:50:45;6.70;;;4.73;;
1837;SDS011;918;50.796;6.772;2023-10-08T07:53:11;5.63;;;5.03;;
1837;SDS011;918;50.796;6.772;2023-10-08T07:55:43;5.50;;;4.67;;
1837;SDS011;918;50.796;6.772;2023-10-08T07:58:09;7.57;;;5.00;;
1837;SDS011;918;50.796;6.772;2023-10-08T08:00:36;5.93;;;4.80;;
1837;SDS011;918;50.796;6.772;2023-10-08T08:03:03;6.77;;;5.20;;
1837;SDS011;918;50.796;6.772;2023-10-08T08:05:30;6.20;;;4.50;;
1837;SDS011;918;50.796;6.772;2023-10-08T08:07:55;5.00;;;4.37;;
1837;SDS011;918;50.796;6.772;2023-10-08T08:10:23;9.07;;;5.07;;
1837;SDS011;918;50.796;6.772;2023-10-08T08:12:48;6.00;;;4.37;;
1837;SDS011;918;50.796;6.772;2023-10-08T08:15:16;5.23;;;4.73;;
1837;SDS011;918;50.796;6.772;2023-10-08T08:17:42;8.37;;;4.30;;
1837;SDS011;918;50.796;6.772;2023-10-08T08:20:07;5.00;;;4.43;;
1837;SDS011;918;50.796;6.772;2023-10-08T08:22:42;5.60;;;4.60;;
1837;SDS011;918;50.796;6.772;2023-10-08T08:25:14;5.80;;;4.80;;
1837;SDS011;918;50.796;6.772;2023-10-08T08:27:43;8.03;;;4.80;;
1837;SDS011;918;50.796;6.772;2023-10-08T08:30:11;6.37;;;5.53;;
1837;SDS011;918;50.796;6.772;2023-10-08T08:32:40;6.13;;;4.77;;
1837;SDS011;918;50.796;6.772;2023-10-08T08:35:08;6.07;;;4.33;;
1837;SDS011;918;50.796;6.772;2023-10-08T08:37:35;4.80;;;4.40;;
1837;SDS011;918;50.796;6.772;2023-10-08T08:40:03;7.83;;;5.23;;
1837;SDS011;918;50.796;6.772;2023-10-08T08:42:44;7.30;;;5.63;;
1837;SDS011;918;50.796;6.772;2023-10-08T08:45:16;5.77;;;4.80;;
1837;SDS011;918;50.796;6.772;2023-10-08T08:47:43;5.03;;;4.20;;
1837;SDS011;918;50.796;6.772;2023-10-08T08:50:10;5.60;;;5.10;;
1837;SDS011;918;50.796;6.772;2023-10-08T08:52:39;6.90;;;4.73;;
1837;SDS011;918;50.796;6.772;2023-10-08T08:55:05;7.40;;;5.07;;
1837;SDS011;918;50.796;6.772;2023-10-08T08:57:38;7.70;;;5.77;;
1837;SDS011;918;50.796;6.772;2023-10-08T09:00:05;7.93;;;5.87;;
1837;SDS011;918;50.796;6.772;2023-10-08T09:02:37;7.97;;;5.57;;
1837;SDS011;918;50.796;6.772;2023-10-08T09:05:02;9.43;;;5.40;;
1837;SDS011;918;50.796;6.772;2023-10-08T09:07:51;7.83;;;5.60;;
1837;SDS011;918;50.796;6.772;2023-10-08T09:10:17;11.00;;;6.00;;
1837;SDS011;918;50.796;6.772;2023-10-08T09:12:43;7.40;;;6.17;;
1837;SDS011;918;50.796;6.772;2023-10-08T09:15:08;6.70;;;5.43;;
1837;SDS011;918;50.796;6.772;2023-10-08T09:17:35;7.37;;;6.30;;
1837;SDS011;918;50.796;6.772;2023-10-08T09:20:00;6.97;;;5.40;;
1837;SDS011;918;50.796;6.772;2023-10-08T09:22:26;9.03;;;6.97;;
1837;SDS011;918;50.796;6.772;2023-10-08T09:24:52;8.03;;;5.93;;
1837;SDS011;918;50.796;6.772;2023-10-08T09:27:18;9.10;;;5.60;;
1837;SDS011;918;50.796;6.772;2023-10-08T09:29:44;6.50;;;5.10;;
1837;SDS011;918;50.796;6.772;2023-10-08T09:32:11;9.23;;;5.50;;
1837;SDS011;918;50.796;6.772;2023-10-08T09:34:38;8.80;;;6.40;;
1837;SDS011;918;50.796;6.772;2023-10-08T09:37:03;6.20;;;5.60;;
1837;SDS011;918;50.796;6.772;2023-10-08T09:39:30;6.53;;;5.83;;
1837;SDS011;918;50.796;6.772;2023-10-08T09:41:59;7.87;;;5.97;;
1837;SDS011;918;50.796;6.772;2023-10-08T09:44:27;8.37;;;6.10;;
1837;SDS011;918;50.796;6.772;2023-10-08T09:47:02;7.97;;;5.37;;
1837;SDS011;918;50.796;6.772;2023-10-08T09:49:38;9.90;;;5.60;;
1837;SDS011;918;50.796;6.772;2023-10-08T09:52:10;9.27;;;6.20;;
1837;SDS011;918;50.796;6.772;2023-10-08T09:55:22;10.00;;;5.97;;
1837;SDS011;918;50.796;6.772;2023-10-08T09:57:28;9.40;;;7.50;;
1837;SDS011;918;50.796;6.772;2023-10-08T09:59:53;13.37;;;7.53;;
1837;SDS011;918;50.796;6.772;2023-10-08T10:02:19;10.60;;;6.70;;
1837;SDS011;918;50.796;6.772;2023-10-08T10:04:49;18.20;;;10.13;;
1837;SDS011;918;50.796;6.772;2023-10-08T10:07:16;17.03;;;9.00;;
1837;SDS011;918;50.796;6.772;2023-10-08T10:09:45;11.60;;;8.20;;
1837;SDS011;918;50.796;6.772;2023-10-08T10:12:11;16.63;;;8.37;;
1837;SDS011;918;50.796;6.772;2023-10-08T10:14:40;11.93;;;8.03;;
1837;SDS011;918;50.796;6.772;2023-10-08T10:17:20;13.73;;;8.30;;
1837;SDS011;918;50.796;6.772;2023-10-08T10:19:54;14.10;;;7.83;;
1837;SDS011;918;50.796;6.772;2023-10-08T10:22:31;10.03;;;7.40;;
1837;SDS011;918;50.796;6.772;2023-10-08T10:24:58;13.70;;;7.60;;
1837;SDS011;918;50.796;6.772;2023-10-08T10:27:25;12.73;;;7.03;;
1837;SDS011;918;50.796;6.772;2023-10-08T10:29:51;10.83;;;8.00;;
1837;SDS011;918;50.796;6.772;2023-10-08T10:32:43;11.80;;;8.53;;
1837;SDS011;918;50.796;6.772;2023-10-08T10:35:14;11.50;;;8.20;;
1837;SDS011;918;50.796;6.772;2023-10-08T10:37:43;16.53;;;9.63;;
1837;SDS011;918;50.796;6.772;2023-10-08T10:40:19;23.77;;;9.30;;
1837;SDS011;918;50.796;6.772;2023-10-08T10:43:06;12.60;;;9.57;;
1837;SDS011;918;50.796;6.772;2023-10-08T10:45:34;16.07;;;9.47;;
1837;SDS011;918;50.796;6.772;2023-10-08T10:48:07;16.23;;;10.30;;
1837;SDS011;918;50.796;6.772;2023-10-08T10:50:51;14.47;;;9.97;;
1837;SDS011;918;50.796;6.772;2023-10-08T10:53:32;12.90;;;9.50;;
1837;SDS011;918;50.796;6.772;2023-10-08T10:55:58;12.43;;;9.23;;
1837;SDS011;918;50.796;6.772;2023-10-08T10:58:34;17.53;;;9.90;;
1837;SDS011;918;50.796;6.772;2023-10-08T11:01:04;15.60;;;9.00;;
1837;SDS011;918;50.796;6.772;2023-10-08T11:03:40;11.40;;;8.43;;
1837;SDS011;918;50.796;6.772;2023-10-08T11:06:07;13.77;;;9.17;;
1837;SDS011;918;50.796;6.772;2023-10-08T11:08:40;13.97;;;9.43;;
1837;SDS011;918;50.796;6.772;2023-10-08T11:11:11;16.90;;;9.30;;
1837;SDS011;918;50.796;6.772;2023-10-08T11:13:36;12.40;;;7.70;;
1837;SDS011;918;50.796;6.772;2023-10-08T11:16:05;12.30;;;8.07;;
1837;SDS011;918;50.796;6.772;2023-10-08T11:18:32;12.47;;;8.13;;
1837;SDS011;918;50.796;6.772;2023-10-08T11:21:08;15.40;;;9.93;;
1837;SDS011;918;50.796;6.772;2023-10-08T11:23:49;16.30;;;10.30;;
1837;SDS011;918;50.796;6.772;2023-10-08T11:26:20;14.17;;;8.03;;
1837;SDS011;918;50.796;6.772;2023-10-08T11:28:56;18.53;;;10.43;;
1837;SDS011;918;50.796;6.772;2023-10-08T11:31:25;15.80;;;10.53;;
1837;SDS011;918;50.796;6.772;2023-10-08T11:33:53;11.10;;;9.17;;
1837;SDS011;918;50.796;6.772;2023-10-08T11:36:23;14.73;;;8.97;;
1837;SDS011;918;50.796;6.772;2023-10-08T11:39:08;10.60;;;8.37;;
1837;SDS011;918;50.796;6.772;2023-10-08T11:41:36;15.13;;;10.23;;
1837;SDS011;918;50.796;6.772;2023-10-08T11:44:15;14.63;;;9.40;;
1837;SDS011;918;50.796;6.772;2023-10-08T11:46:44;11.50;;;8.70;;
1837;SDS011;918;50.796;6.772;2023-10-08T11:49:10;11.63;;;9.43;;
1837;SDS011;918;50.796;6.772;2023-10-08T11:51:43;13.50;;;9.50;;
1837;SDS011;918;50.796;6.772;2023-10-08T11:54:09;12.23;;;8.87;;
1837;SDS011;918;50.796;6.772;2023-10-08T11:56:36;11.83;;;8.30;;
1837;SDS011;918;50.796;6.772;2023-10-08T11:59:03;10.77;;;8.50;;
1837;SDS011;918;50.796;6.772;2023-10-08T12:01:33;12.93;;;8.30;;
1837;SDS011;918;50.796;6.772;2023-10-08T12:04:00;17.70;;;10.10;;
1837;SDS011;918;50.796;6.772;2023-10-08T12:06:26;13.70;;;9.03;;
1837;SDS011;918;50.796;6.772;2023-10-08T12:08:54;11.37;;;7.60;;
1837;SDS011;918;50.796;6.772;2023-10-08T12:11:23;10.37;;;7.90;;
1837;SDS011;918;50.796;6.772;2023-10-08T12:13:58;14.47;;;9.43;;
1837;SDS011;918;50.796;6.772;2023-10-08T12:16:28;10.40;;;7.83;;
1837;SDS011;918;50.796;6.772;2023-10-08T12:18:55;12.37;;;7.40;;
1837;SDS011;918;50.796;6.772;2023-10-08T12:21:24;11.50;;;8.17;;
1837;SDS011;918;50.796;6.772;2023-10-08T12:23:50;11.00;;;8.43;;
1837;SDS011;918;50.796;6.772;2023-10-08T12:26:16;10.80;;;6.77;;
1837;SDS011;918;50.796;6.772;2023-10-08T12:28:44;12.23;;;8.30;;
1837;SDS011;918;50.796;6.772;2023-10-08T12:31:19;13.30;;;7.20;;
1837;SDS011;918;50.796;6.772;2023-10-08T12:33:49;14.80;;;7.67;;
1837;SDS011;918;50.796;6.772;2023-10-08T12:36:19;13.07;;;8.00;;
1837;SDS011;918;50.796;6.772;2023-10-08T12:38:48;11.50;;;7.30;;
1837;SDS011;918;50.796;6.772;2023-10-08T12:41:13;12.60;;;8.30;;
1837;SDS011;918;50.796;6.772;2023-10-08T12:43:39;14.30;;;7.87;;
1837;SDS011;918;50.796;6.772;2023-10-08T12:46:10;11.80;;;8.97;;
1837;SDS011;918;50.796;6.772;2023-10-08T12:48:43;9.63;;;7.40;;
1837;SDS011;918;50.796;6.772;2023-10-08T12:51:09;8.93;;;7.73;;
1837;SDS011;918;50.796;6.772;2023-10-08T12:53:36;10.90;;;8.00;;
1837;SDS011;918;50.796;6.772;2023-10-08T12:56:08;11.00;;;7.20;;
1837;SDS011;918;50.796;6.772;2023-10-08T12:58:40;10.80;;;7.87;;
1837;SDS011;918;50.796;6.772;2023-10-08T13:01:09;9.93;;;8.10;;
1837;SDS011;918;50.796;6.772;2023-10-08T13:03:39;11.47;;;7.93;;
1837;SDS011;918;50.796;6.772;2023-10-08T13:06:10;11.77;;;8.37;;
1837;SDS011;918;50.796;6.772;2023-10-08T13:08:46;15.77;;;8.17;;
1837;SDS011;918;50.796;6.772;2023-10-08T13:11:11;14.20;;;7.90;;
1837;SDS011;918;50.796;6.772;2023-10-08T13:13:37;12.23;;;8.10;;
1837;SDS011;918;50.796;6.772;2023-10-08T13:16:02;12.50;;;7.63;;
1837;SDS011;918;50.796;6.772;2023-10-08T13:18:32;12.93;;;8.53;;
1837;SDS011;918;50.796;6.772;2023-10-08T13:20:58;12.73;;;8.10;;
1837;SDS011;918;50.796;6.772;2023-10-08T13:23:24;12.63;;;8.80;;
1837;SDS011;918;50.796;6.772;2023-10-08T13:25:49;9.53;;;7.40;;
1837;SDS011;918;50.796;6.772;2023-10-08T13:28:23;10.57;;;7.53;;
1837;SDS011;918;50.796;6.772;2023-10-08T13:30:51;13.97;;;7.43;;
1837;SDS011;918;50.796;6.772;2023-10-08T13:33:20;12.73;;;6.97;;
1837;SDS011;918;50.796;6.772;2023-10-08T13:35:47;12.20;;;7.60;;
1837;SDS011;918;50.796;6.772;2023-10-08T13:38:15;11.50;;;7.83;;
1837;SDS011;918;50.796;6.772;2023-10-08T13:40:45;12.60;;;8.10;;
1837;SDS011;918;50.796;6.772;2023-10-08T13:43:27;8.60;;;6.90;;
1837;SDS011;918;50.796;6.772;2023-10-08T13:45:58;9.63;;;6.60;;
1837;SDS011;918;50.796;6.772;2023-10-08T13:48:32;9.40;;;7.27;;
1837;SDS011;918;50.796;6.772;2023-10-08T13:51:05;10.10;;;7.13;;
1837;SDS011;918;50.796;6.772;2023-10-08T13:53:36;13.57;;;8.60;;
1837;SDS011;918;50.796;6.772;2023-10-08T13:56:02;8.57;;;7.07;;
1837;SDS011;918;50.796;6.772;2023-10-08T13:58:29;11.23;;;7.87;;
1837;SDS011;918;50.796;6.772;2023-10-08T14:00:56;14.70;;;7.33;;
1837;SDS011;918;50.796;6.772;2023-10-08T14:03:22;9.83;;;7.00;;
1837;SDS011;918;50.796;6.772;2023-10-08T14:05:47;11.73;;;7.80;;
1837;SDS011;918;50.796;6.772;2023-10-08T14:08:19;11.97;;;8.10;;
1837;SDS011;918;50.796;6.772;2023-10-08T14:10:45;12.23;;;8.03;;
1837;SDS011;918;50.796;6.772;2023-10-08T14:13:13;10.10;;;7.53;;
1837;SDS011;918;50.796;6.772;2023-10-08T14:15:38;8.43;;;7.23;;
1837;SDS011;918;50.796;6.772;2023-10-08T14:18:10;15.00;;;6.80;;
1837;SDS011;918;50.796;6.772;2023-10-08T14:20:39;11.27;;;7.63;;
1837;SDS011;918;50.796;6.772;2023-10-08T14:23:05;8.40;;;7.03;;
1837;SDS011;918;50.796;6.772;2023-10-08T14:25:31;11.53;;;7.03;;
1837;SDS011;918;50.796;6.772;2023-10-08T14:27:58;11.57;;;7.43;;
1837;SDS011;918;50.796;6.772;2023-10-08T14:30:29;8.80;;;7.70;;
1837;SDS011;918;50.796;6.772;2023-10-08T14:32:56;10.80;;;7.50;;
1837;SDS011;918;50.796;6.772;2023-10-08T14:35:23;8.90;;;6.70;;
1837;SDS011;918;50.796;6.772;2023-10-08T14:38:06;10.40;;;6.70;;
1837;SDS011;918;50.796;6.772;2023-10-08T14:40:50;13.40;;;8.60;;
1837;SDS011;918;50.796;6.772;2023-10-08T14:43:34;12.40;;;7.97;;
1837;SDS011;918;50.796;6.772;2023-10-08T14:46:00;13.17;;;8.77;;
1837;SDS011;918;50.796;6.772;2023-10-08T14:48:29;10.60;;;8.77;;
1837;SDS011;918;50.796;6.772;2023-10-08T14:50:59;12.97;;;9.10;;
1837;SDS011;918;50.796;6.772;2023-10-08T14:53:24;11.63;;;9.50;;
1837;SDS011;918;50.796;6.772;2023-10-08T14:55:49;10.90;;;9.07;;
1837;SDS011;918;50.796;6.772;2023-10-08T14:58:15;14.37;;;10.10;;
1837;SDS011;918;50.796;6.772;2023-10-08T15:00:40;13.73;;;9.03;;
1837;SDS011;918;50.796;6.772;2023-10-08T15:03:07;15.07;;;9.10;;
1837;SDS011;918;50.796;6.772;2023-10-08T15:05:33;15.70;;;9.00;;
1837;SDS011;918;50.796;6.772;2023-10-08T15:08:01;11.33;;;8.80;;
1837;SDS011;918;50.796;6.772;2023-10-08T15:10:28;14.20;;;9.60;;
1837;SDS011;918;50.796;6.772;2023-10-08T15:12:55;10.63;;;8.77;;
1837;SDS011;918;50.796;6.772;2023-10-08T15:15:22;11.80;;;9.67;;
1837;SDS011;918;50.796;6.772;2023-10-08T15:17:49;17.23;;;9.67;;
1837;SDS011;918;50.796;6.772;2023-10-08T15:20:16;11.10;;;8.60;;
1837;SDS011;918;50.796;6.772;2023-10-08T15:22:45;12.30;;;10.17;;
1837;SDS011;918;50.796;6.772;2023-10-08T15:25:12;12.20;;;10.03;;
1837;SDS011;918;50.796;6.772;2023-10-08T15:27:38;11.37;;;10.10;;
1837;SDS011;918;50.796;6.772;2023-10-08T15:30:06;19.00;;;10.90;;
1837;SDS011;918;50.796;6.772;2023-10-08T15:32:36;12.30;;;8.90;;
1837;SDS011;918;50.796;6.772;2023-10-08T15:35:02;15.60;;;9.50;;
1837;SDS011;918;50.796;6.772;2023-10-08T15:37:27;18.90;;;9.50;;
1837;SDS011;918;50.796;6.772;2023-10-08T15:39:53;14.03;;;10.23;;
1837;SDS011;918;50.796;6.772;2023-10-08T15:42:18;13.63;;;10.10;;
1837;SDS011;918;50.796;6.772;2023-10-08T15:44:44;11.90;;;8.83;;